sensor_id;sensor_type;location;lat;lon;timestamp;pressure;altitude;pressure_sealevel;temperature;humidity
79127;BME280;68528;48.814;8.904;2023-08-12T00:00:09;96709.94;;;17.28;84.03
79127;BME280;68528;48.814;8.904;2023-08-12T00:02:40;96711.13;;;17.31;84.05
79127;BME280;68528;48.814;8.904;2023-08-12T00:05:07;96703.25;;;17.22;84.15
79127;BME280;68528;48.814;8.904;2023-08-12T00:07:33;96706.78;;;17.26;84.00
79127;BME280;68528;48.814;8.904;2023-08-12T00:10:02;96700.06;;;17.23;83.98
79127;BME280;68528;48.814;8.904;2023-08-12T00:12:31;96704.44;;;17.24;84.40
79127;BME280;68528;48.814;8.904;2023-08-12T00:14:56;96697.28;;;17.23;84.14
79127;BME280;68528;48.814;8.904;2023-08-12T00:17:22;96694.91;;;17.25;84.48
79127;BME280;68528;48.814;8.904;2023-08-12T00:19:51;96699.28;;;17.19;84.65
79127;BME280;68528;48.814;8.904;2023-08-12T00:22:21;96702.44;;;17.21;84.32
79127;BME280;68528;48.814;8.904;2023-08-12T00:25:07;96704.44;;;17.17;84.54
79127;BME280;68528;48.814;8.904;2023-08-12T00:27:33;96697.34;;;17.09;84.98
79127;BME280;68528;48.814;8.904;2023-08-12T00:29:58;96685.50;;;16.98;84.92
79127;BME280;68528;48.814;8.904;2023-08-12T00:32:24;96672.50;;;16.81;85.65
79127;BME280;68528;48.814;8.904;2023-08-12T00:34:49;96653.97;;;16.64;86.53
79127;BME280;68528;48.814;8.904;2023-08-12T00:37:15;96677.28;;;16.60;87.16
79127;BME280;68528;48.814;8.904;2023-08-12T00:39:40;96652.38;;;16.49;86.67
79127;BME280;68528;48.814;8.904;2023-08-12T00:42:08;96680.44;;;16.65;86.33
79127;BME280;68528;48.814;8.904;2023-08-12T00:44:34;96689.50;;;16.76;86.45
79127;BME280;68528;48.814;8.904;2023-08-12T00:46:59;96689.50;;;16.73;86.61
79127;BME280;68528;48.814;8.904;2023-08-12T00:49:25;96683.97;;;16.69;86.63
79127;BME280;68528;48.814;8.904;2023-08-12T00:51:52;96690.31;;;16.66;86.71
79127;BME280;68528;48.814;8.904;2023-08-12T00:54:20;96683.22;;;16.62;87.06
79127;BME280;68528;48.814;8.904;2023-08-12T00:56:48;96676.88;;;16.51;87.71
79127;BME280;68528;48.814;8.904;2023-08-12T00:59:16;96678.44;;;16.69;86.71
79127;BME280;68528;48.814;8.904;2023-08-12T01:10:18;96668.59;;;16.68;86.97
79127;BME280;68528;48.814;8.904;2023-08-12T01:15:44;96665.03;;;16.64;87.01
79127;BME280;68528;48.814;8.904;2023-08-12T01:18:11;96663.44;;;16.70;86.80
79127;BME280;68528;48.814;8.904;2023-08-12T01:20:40;96650.00;;;16.76;86.79
79127;BME280;68528;48.814;8.904;2023-08-12T01:23:11;96631.47;;;16.66;86.86
79127;BME280;68528;48.814;8.904;2023-08-12T01:25:42;96633.00;;;16.81;86.86
79127;BME280;68528;48.814;8.904;2023-08-12T01:28:11;96628.19;;;17.02;85.59
79127;BME280;68528;48.814;8.904;2023-08-12T01:30:46;96630.94;;;17.09;85.38
79127;BME280;68528;48.814;8.904;2023-08-12T01:33:20;96645.13;;;17.22;85.06
79127;BME280;68528;48.814;8.904;2023-08-12T01:35:54;96645.84;;;17.37;84.82
79127;BME280;68528;48.814;8.904;2023-08-12T01:38:22;96640.28;;;17.44;84.47
79127;BME280;68528;48.814;8.904;2023-08-12T01:40:50;96633.16;;;17.43;84.08
79127;BME280;68528;48.814;8.904;2023-08-12T01:43:16;96635.91;;;17.53;83.99
79127;BME280;68528;48.814;8.904;2023-08-12T01:45:42;96637.50;;;17.54;83.88
79127;BME280;68528;48.814;8.904;2023-08-12T01:48:09;96636.31;;;17.52;84.06
79127;BME280;68528;48.814;8.904;2023-08-12T01:50:34;96645.00;;;17.47;84.51
79127;BME280;68528;48.814;8.904;2023-08-12T01:52:59;96644.66;;;17.41;85.32
79127;BME280;68528;48.814;8.904;2023-08-12T01:58:31;96622.97;;;17.29;85.04
79127;BME280;68528;48.814;8.904;2023-08-12T02:01:02;96637.97;;;17.35;85.22
79127;BME280;68528;48.814;8.904;2023-08-12T02:03:31;96638.72;;;17.39;85.50
79127;BME280;68528;48.814;8.904;2023-08-12T02:05:57;96642.69;;;17.42;86.03
79127;BME280;68528;48.814;8.904;2023-08-12T02:08:22;96639.50;;;17.43;85.88
79127;BME280;68528;48.814;8.904;2023-08-12T02:10:48;96624.47;;;17.44;84.64
79127;BME280;68528;48.814;8.904;2023-08-12T02:13:17;96624.03;;;17.49;84.06
79127;BME280;68528;48.814;8.904;2023-08-12T02:16:03;96616.56;;;17.50;84.39
79127;BME280;68528;48.814;8.904;2023-08-12T02:18:28;96626.00;;;17.56;84.53
79127;BME280;68528;48.814;8.904;2023-08-12T02:20:54;96633.50;;;17.62;84.14
79127;BME280;68528;48.814;8.904;2023-08-12T02:23:19;96617.31;;;17.54;85.31
79127;BME280;68528;48.814;8.904;2023-08-12T02:25:45;96609.44;;;17.52;84.70
79127;BME280;68528;48.814;8.904;2023-08-12T02:28:16;96599.53;;;17.55;83.65
79127;BME280;68528;48.814;8.904;2023-08-12T02:30:45;96599.03;;;17.74;82.89
79127;BME280;68528;48.814;8.904;2023-08-12T02:33:15;96624.91;;;18.04;82.39
79127;BME280;68528;48.814;8.904;2023-08-12T02:35:41;96613.63;;;18.29;80.87
79127;BME280;68528;48.814;8.904;2023-08-12T02:38:09;96625.34;;;18.51;79.89
79127;BME280;68528;48.814;8.904;2023-08-12T02:40:35;96593.84;;;18.31;79.76
79127;BME280;68528;48.814;8.904;2023-08-12T02:43:01;96587.50;;;18.30;79.81
79127;BME280;68528;48.814;8.904;2023-08-12T02:45:31;96613.16;;;18.41;79.77
79127;BME280;68528;48.814;8.904;2023-08-12T02:47:57;96592.28;;;18.23;79.97
79127;BME280;68528;48.814;8.904;2023-08-12T02:53:51;96617.19;;;18.30;80.61
79127;BME280;68528;48.814;8.904;2023-08-12T02:56:21;96586.47;;;18.10;81.02
79127;BME280;68528;48.814;8.904;2023-08-12T02:58:50;96590.09;;;18.00;81.85
79127;BME280;68528;48.814;8.904;2023-08-12T03:01:18;96578.75;;;17.84;82.38
79127;BME280;68528;48.814;8.904;2023-08-12T03:03:47;96600.13;;;17.83;83.11
79127;BME280;68528;48.814;8.904;2023-08-12T03:06:14;96593.50;;;17.67;84.04
79127;BME280;68528;48.814;8.904;2023-08-12T03:09:02;96574.50;;;17.69;84.64
79127;BME280;68528;48.814;8.904;2023-08-12T03:11:30;96569.84;;;17.59;84.65
79127;BME280;68528;48.814;8.904;2023-08-12T03:13:56;96587.13;;;17.77;84.42
79127;BME280;68528;48.814;8.904;2023-08-12T03:16:24;96568.97;;;17.69;84.41
79127;BME280;68528;48.814;8.904;2023-08-12T03:18:49;96572.84;;;17.82;82.74
79127;BME280;68528;48.814;8.904;2023-08-12T03:21:15;96571.97;;;17.92;83.00
79127;BME280;68528;48.814;8.904;2023-08-12T03:23:45;96558.53;;;17.87;82.72
79127;BME280;68528;48.814;8.904;2023-08-12T03:26:11;96590.81;;;18.11;82.58
79127;BME280;68528;48.814;8.904;2023-08-12T03:28:37;96593.13;;;18.20;82.26
79127;BME280;68528;48.814;8.904;2023-08-12T03:31:03;96601.06;;;18.18;82.36
79127;BME280;68528;48.814;8.904;2023-08-12T03:33:28;96594.00;;;18.10;82.64
79127;BME280;68528;48.814;8.904;2023-08-12T03:35:53;96595.59;;;18.07;83.53
79127;BME280;68528;48.814;8.904;2023-08-12T03:38:19;96597.63;;;18.03;84.20
79127;BME280;68528;48.814;8.904;2023-08-12T03:40:44;96593.16;;;18.16;82.35
79127;BME280;68528;48.814;8.904;2023-08-12T03:43:10;96589.06;;;18.31;81.89
79127;BME280;68528;48.814;8.904;2023-08-12T03:45:42;96592.34;;;18.19;82.69
79127;BME280;68528;48.814;8.904;2023-08-12T03:48:09;96590.84;;;18.08;83.93
79127;BME280;68528;48.814;8.904;2023-08-12T03:50:36;96594.09;;;17.99;83.78
79127;BME280;68528;48.814;8.904;2023-08-12T03:53:02;96593.72;;;17.97;84.29
79127;BME280;68528;48.814;8.904;2023-08-12T03:55:32;96582.66;;;17.90;84.54
79127;BME280;68528;48.814;8.904;2023-08-12T03:57:59;96590.94;;;17.97;84.17
79127;BME280;68528;48.814;8.904;2023-08-12T04:00:41;96590.50;;;18.02;83.48
79127;BME280;68528;48.814;8.904;2023-08-12T04:03:35;96607.44;;;18.11;83.83
79127;BME280;68528;48.814;8.904;2023-08-12T04:06:20;96600.38;;;18.03;84.70
79127;BME280;68528;48.814;8.904;2023-08-12T04:08:46;96596.03;;;18.02;85.35
79127;BME280;68528;48.814;8.904;2023-08-12T04:11:11;96585.06;;;17.88;85.23
79127;BME280;68528;48.814;8.904;2023-08-12T04:13:37;96579.91;;;17.90;84.64
79127;BME280;68528;48.814;8.904;2023-08-12T04:16:03;96593.72;;;17.97;85.12
79127;BME280;68528;48.814;8.904;2023-08-12T04:18:29;96599.63;;;17.99;84.87
79127;BME280;68528;48.814;8.904;2023-08-12T04:21:15;96597.25;;;18.01;84.52
79127;BME280;68528;48.814;8.904;2023-08-12T04:24:04;96577.47;;;17.99;84.02
79127;BME280;68528;48.814;8.904;2023-08-12T04:26:30;96577.44;;;18.02;84.23
79127;BME280;68528;48.814;8.904;2023-08-12T04:28:56;96587.72;;;18.02;83.85
79127;BME280;68528;48.814;8.904;2023-08-12T04:31:21;96584.44;;;18.14;83.04
79127;BME280;68528;48.814;8.904;2023-08-12T04:33:46;96605.63;;;18.38;82.74
79127;BME280;68528;48.814;8.904;2023-08-12T04:36:12;96600.13;;;18.35;82.34
79127;BME280;68528;48.814;8.904;2023-08-12T04:38:57;96615.09;;;18.48;82.37
79127;BME280;68528;48.814;8.904;2023-08-12T04:41:23;96618.38;;;18.32;84.16
79127;BME280;68528;48.814;8.904;2023-08-12T04:43:49;96608.91;;;18.23;86.22
79127;BME280;68528;48.814;8.904;2023-08-12T04:46:14;96609.38;;;18.14;87.37
79127;BME280;68528;48.814;8.904;2023-08-12T04:48:40;96608.25;;;18.08;87.41
79127;BME280;68528;48.814;8.904;2023-08-12T04:51:06;96594.41;;;18.08;89.72
79127;BME280;68528;48.814;8.904;2023-08-12T04:53:32;96588.97;;;17.94;90.95
79127;BME280;68528;48.814;8.904;2023-08-12T04:55:58;96607.19;;;17.95;91.22
79127;BME280;68528;48.814;8.904;2023-08-12T04:58:24;96587.44;;;17.86;91.58
79127;BME280;68528;48.814;8.904;2023-08-12T05:00:50;96586.25;;;17.90;91.90
79127;BME280;68528;48.814;8.904;2023-08-12T05:03:17;96579.09;;;17.89;91.44
79127;BME280;68528;48.814;8.904;2023-08-12T05:05:42;96594.09;;;17.99;91.26
79127;BME280;68528;48.814;8.904;2023-08-12T05:08:07;96603.97;;;18.00;92.73
79127;BME280;68528;48.814;8.904;2023-08-12T05:10:37;96604.75;;;18.00;91.76
79127;BME280;68528;48.814;8.904;2023-08-12T05:13:05;96604.34;;;18.02;93.90
79127;BME280;68528;48.814;8.904;2023-08-12T05:15:32;96616.59;;;18.04;94.10
79127;BME280;68528;48.814;8.904;2023-08-12T05:18:01;96605.13;;;18.02;94.12
79127;BME280;68528;48.814;8.904;2023-08-12T05:20:27;96599.56;;;18.06;93.81
79127;BME280;68528;48.814;8.904;2023-08-12T05:22:53;96610.66;;;18.06;93.73
79127;BME280;68528;48.814;8.904;2023-08-12T05:25:18;96598.75;;;18.09;93.10
79127;BME280;68528;48.814;8.904;2023-08-12T05:27:46;96597.91;;;18.12;94.59
79127;BME280;68528;48.814;8.904;2023-08-12T05:30:11;96578.22;;;17.99;93.95
79127;BME280;68528;48.814;8.904;2023-08-12T05:32:38;96594.78;;;18.10;92.83
79127;BME280;68528;48.814;8.904;2023-08-12T05:35:04;96599.47;;;18.20;91.13
79127;BME280;68528;48.814;8.904;2023-08-12T05:37:29;96593.91;;;18.20;94.00
79127;BME280;68528;48.814;8.904;2023-08-12T05:39:58;96609.63;;;18.37;91.24
79127;BME280;68528;48.814;8.904;2023-08-12T05:42:23;96607.97;;;18.43;92.27
79127;BME280;68528;48.814;8.904;2023-08-12T05:44:48;96619.84;;;18.44;94.59
79127;BME280;68528;48.814;8.904;2023-08-12T05:47:14;96622.63;;;18.44;95.49
79127;BME280;68528;48.814;8.904;2023-08-12T05:49:39;96606.81;;;18.41;96.32
79127;BME280;68528;48.814;8.904;2023-08-12T05:52:05;96581.91;;;18.34;96.35
79127;BME280;68528;48.814;8.904;2023-08-12T05:54:50;96573.72;;;18.20;95.76
79127;BME280;68528;48.814;8.904;2023-08-12T05:57:16;96580.94;;;18.07;95.66
79127;BME280;68528;48.814;8.904;2023-08-12T05:59:41;96586.88;;;18.09;96.88
79127;BME280;68528;48.814;8.904;2023-08-12T06:02:06;96574.16;;;18.15;95.09
79127;BME280;68528;48.814;8.904;2023-08-12T06:04:32;96592.97;;;18.37;92.63
79127;BME280;68528;48.814;8.904;2023-08-12T06:06:57;96592.06;;;18.51;93.73
79127;BME280;68528;48.814;8.904;2023-08-12T06:09:26;96594.31;;;18.66;94.82
79127;BME280;68528;48.814;8.904;2023-08-12T06:11:54;96583.88;;;18.77;95.42
79127;BME280;68528;48.814;8.904;2023-08-12T06:14:19;96587.06;;;19.10;93.06
79127;BME280;68528;48.814;8.904;2023-08-12T06:16:45;96569.25;;;19.41;89.16
79127;BME280;68528;48.814;8.904;2023-08-12T06:19:16;96575.78;;;19.58;93.35
79127;BME280;68528;48.814;8.904;2023-08-12T06:21:42;96580.69;;;19.73;93.94
79127;BME280;68528;48.814;8.904;2023-08-12T06:24:07;96585.41;;;20.03;91.46
79127;BME280;68528;48.814;8.904;2023-08-12T06:26:33;96576.78;;;19.97;91.34
79127;BME280;68528;48.814;8.904;2023-08-12T06:29:02;96581.63;;;19.90;90.89
79127;BME280;68528;48.814;8.904;2023-08-12T06:31:48;96579.34;;;20.34;85.20
79127;BME280;68528;48.814;8.904;2023-08-12T06:34:13;96592.81;;;20.59;86.37
79127;BME280;68528;48.814;8.904;2023-08-12T06:36:42;96586.31;;;20.69;86.12
79127;BME280;68528;48.814;8.904;2023-08-12T06:39:10;96588.16;;;20.76;90.24
79127;BME280;68528;48.814;8.904;2023-08-12T06:41:36;96566.63;;;20.80;86.56
79127;BME280;68528;48.814;8.904;2023-08-12T06:44:01;96571.91;;;21.33;88.84
79127;BME280;68528;48.814;8.904;2023-08-12T06:46:29;96585.03;;;21.52;85.37
79127;BME280;68528;48.814;8.904;2023-08-12T06:48:56;96594.56;;;21.91;80.50
79127;BME280;68528;48.814;8.904;2023-08-12T06:51:22;96586.06;;;22.14;78.72
79127;BME280;68528;48.814;8.904;2023-08-12T06:53:48;96604.03;;;22.45;75.31
79127;BME280;68528;48.814;8.904;2023-08-12T06:56:14;96591.56;;;22.33;76.53
79127;BME280;68528;48.814;8.904;2023-08-12T06:58:39;96599.31;;;22.26;80.59
79127;BME280;68528;48.814;8.904;2023-08-12T07:01:04;96589.44;;;22.05;82.29
79127;BME280;68528;48.814;8.904;2023-08-12T07:09:15;96599.03;;;22.69;73.37
79127;BME280;68528;48.814;8.904;2023-08-12T07:12:04;96602.47;;;23.75;77.19
79127;BME280;68528;48.814;8.904;2023-08-12T07:14:30;96598.59;;;24.48;70.55
79127;BME280;68528;48.814;8.904;2023-08-12T07:17:01;96594.97;;;25.07;66.96
79127;BME280;68528;48.814;8.904;2023-08-12T07:19:28;96591.41;;;25.71;63.39
79127;BME280;68528;48.814;8.904;2023-08-12T07:21:54;96597.56;;;25.88;62.53
79127;BME280;68528;48.814;8.904;2023-08-12T07:24:19;96609.91;;;25.90;59.92
79127;BME280;68528;48.814;8.904;2023-08-12T07:26:45;96603.41;;;26.02;63.60
79127;BME280;68528;48.814;8.904;2023-08-12T07:29:10;96593.13;;;26.39;61.89
79127;BME280;68528;48.814;8.904;2023-08-12T07:31:36;96595.59;;;26.77;64.34
79127;BME280;68528;48.814;8.904;2023-08-12T07:34:01;96592.16;;;26.73;61.34
79127;BME280;68528;48.814;8.904;2023-08-12T07:36:27;96582.19;;;27.08;57.57
79127;BME280;68528;48.814;8.904;2023-08-12T07:38:52;96585.56;;;27.84;56.41
79127;BME280;68528;48.814;8.904;2023-08-12T07:41:18;96589.59;;;28.11;58.88
79127;BME280;68528;48.814;8.904;2023-08-12T07:44:02;96583.66;;;28.74;57.95
79127;BME280;68528;48.814;8.904;2023-08-12T07:46:30;96585.50;;;29.24;54.85
79127;BME280;68528;48.814;8.904;2023-08-12T07:48:56;96580.50;;;29.72;54.31
79127;BME280;68528;48.814;8.904;2023-08-12T07:51:23;96563.78;;;29.98;52.49
79127;BME280;68528;48.814;8.904;2023-08-12T07:53:49;96571.09;;;30.54;52.63
79127;BME280;68528;48.814;8.904;2023-08-12T07:56:14;96560.59;;;30.74;47.09
79127;BME280;68528;48.814;8.904;2023-08-12T07:58:41;96563.38;;;30.89;44.75
79127;BME280;68528;48.814;8.904;2023-08-12T08:01:21;96576.72;;;30.68;45.29
79127;BME280;68528;48.814;8.904;2023-08-12T08:17:59;96575.41;;;31.70;50.85
79127;BME280;68528;48.814;8.904;2023-08-12T08:20:26;96569.25;;;32.28;46.82
79127;BME280;68528;48.814;8.904;2023-08-12T08:23:12;96566.03;;;32.46;46.51
79127;BME280;68528;48.814;8.904;2023-08-12T08:25:38;96559.44;;;32.29;45.40
79127;BME280;68528;48.814;8.904;2023-08-12T08:28:04;96548.47;;;32.85;43.40
79127;BME280;68528;48.814;8.904;2023-08-12T08:30:31;96543.78;;;33.30;39.72
79127;BME280;68528;48.814;8.904;2023-08-12T08:32:56;96555.50;;;32.95;41.75
79127;BME280;68528;48.814;8.904;2023-08-12T08:35:22;96555.38;;;33.15;44.10
79127;BME280;68528;48.814;8.904;2023-08-12T08:37:47;96564.97;;;33.29;43.47
79127;BME280;68528;48.814;8.904;2023-08-12T08:40:13;96559.56;;;33.36;43.44
79127;BME280;68528;48.814;8.904;2023-08-12T08:42:39;96560.16;;;33.51;43.80
79127;BME280;68528;48.814;8.904;2023-08-12T08:45:12;96566.25;;;33.33;44.31
79127;BME280;68528;48.814;8.904;2023-08-12T08:47:39;96569.13;;;33.39;45.50
79127;BME280;68528;48.814;8.904;2023-08-12T08:50:08;96562.63;;;33.27;45.53
79127;BME280;68528;48.814;8.904;2023-08-12T08:52:34;96562.53;;;33.91;41.55
79127;BME280;68528;48.814;8.904;2023-08-12T08:55:09;96560.47;;;34.47;38.53
79127;BME280;68528;48.814;8.904;2023-08-12T08:57:38;96562.56;;;34.41;42.17
79127;BME280;68528;48.814;8.904;2023-08-12T09:00:25;96558.88;;;34.85;41.91
79127;BME280;68528;48.814;8.904;2023-08-12T09:02:50;96573.69;;;35.41;40.84
79127;BME280;68528;48.814;8.904;2023-08-12T09:05:16;96567.16;;;35.57;39.12
79127;BME280;68528;48.814;8.904;2023-08-12T09:07:45;96561.03;;;35.83;39.35
79127;BME280;68528;48.814;8.904;2023-08-12T09:10:12;96564.88;;;35.96;34.60
79127;BME280;68528;48.814;8.904;2023-08-12T09:12:37;96543.44;;;36.19;34.73
79127;BME280;68528;48.814;8.904;2023-08-12T09:15:10;96568.53;;;35.39;35.44
79127;BME280;68528;48.814;8.904;2023-08-12T09:17:35;96563.31;;;35.55;39.70
79127;BME280;68528;48.814;8.904;2023-08-12T09:20:01;96566.41;;;34.71;38.69
79127;BME280;68528;48.814;8.904;2023-08-12T09:22:28;96566.97;;;34.59;37.26
79127;BME280;68528;48.814;8.904;2023-08-12T09:24:57;96560.69;;;34.99;40.00
79127;BME280;68528;48.814;8.904;2023-08-12T09:27:23;96552.63;;;34.98;37.59
79127;BME280;68528;48.814;8.904;2023-08-12T09:29:49;96552.06;;;35.68;39.33
79127;BME280;68528;48.814;8.904;2023-08-12T09:32:19;96542.09;;;35.44;38.66
79127;BME280;68528;48.814;8.904;2023-08-12T09:34:52;96546.69;;;35.01;37.55
79127;BME280;68528;48.814;8.904;2023-08-12T09:37:25;96544.69;;;34.74;37.40
79127;BME280;68528;48.814;8.904;2023-08-12T09:39:52;96535.69;;;34.42;37.94
79127;BME280;68528;48.814;8.904;2023-08-12T09:42:20;96510.59;;;33.52;39.96
79127;BME280;68528;48.814;8.904;2023-08-12T09:45:05;96532.00;;;32.89;40.78
79127;BME280;68528;48.814;8.904;2023-08-12T09:47:33;96515.13;;;32.26;42.36
79127;BME280;68528;48.814;8.904;2023-08-12T09:50:00;96525.53;;;31.47;41.51
79127;BME280;68528;48.814;8.904;2023-08-12T09:55:38;96550.66;;;30.99;46.66
79127;BME280;68528;48.814;8.904;2023-08-12T09:58:06;96549.25;;;30.89;48.69
79127;BME280;68528;48.814;8.904;2023-08-12T10:00:32;96540.69;;;31.04;45.27
79127;BME280;68528;48.814;8.904;2023-08-12T10:02:59;96526.00;;;31.45;46.75
79127;BME280;68528;48.814;8.904;2023-08-12T10:05:31;96519.66;;;31.56;48.05
79127;BME280;68528;48.814;8.904;2023-08-12T10:07:57;96531.06;;;32.18;46.85
79127;BME280;68528;48.814;8.904;2023-08-12T10:10:25;96522.88;;;32.63;43.30
79127;BME280;68528;48.814;8.904;2023-08-12T10:12:51;96538.16;;;32.39;44.46
79127;BME280;68528;48.814;8.904;2023-08-12T10:15:17;96537.84;;;31.95;41.28
79127;BME280;68528;48.814;8.904;2023-08-12T10:17:47;96523.41;;;32.67;45.27
79127;BME280;68528;48.814;8.904;2023-08-12T10:20:20;96514.72;;;33.51;39.70
79127;BME280;68528;48.814;8.904;2023-08-12T10:22:50;96504.19;;;34.18;39.99
79127;BME280;68528;48.814;8.904;2023-08-12T10:25:22;96506.97;;;34.68;40.26
79127;BME280;68528;48.814;8.904;2023-08-12T10:28:41;96514.94;;;35.38;40.69
79127;BME280;68528;48.814;8.904;2023-08-12T10:31:44;96512.94;;;36.09;35.09
79127;BME280;68528;48.814;8.904;2023-08-12T10:34:29;96509.41;;;35.92;36.34
79127;BME280;68528;48.814;8.904;2023-08-12T10:36:57;96498.53;;;36.25;40.18
79127;BME280;68528;48.814;8.904;2023-08-12T10:39:28;96516.19;;;36.24;37.64
79127;BME280;68528;48.814;8.904;2023-08-12T10:41:56;96506.94;;;36.12;37.93
79127;BME280;68528;48.814;8.904;2023-08-12T10:48:10;96509.00;;;35.77;38.27
79127;BME280;68528;48.814;8.904;2023-08-12T10:50:44;96512.47;;;36.59;31.87
79127;BME280;68528;48.814;8.904;2023-08-12T10:53:31;96515.28;;;36.64;33.42
79127;BME280;68528;48.814;8.904;2023-08-12T10:56:03;96520.81;;;36.81;37.72
79127;BME280;68528;48.814;8.904;2023-08-12T10:58:45;96506.47;;;35.73;35.13
79127;BME280;68528;48.814;8.904;2023-08-12T11:01:16;96510.06;;;35.27;38.69
79127;BME280;68528;48.814;8.904;2023-08-12T11:03:43;96514.88;;;35.03;33.31
79127;BME280;68528;48.814;8.904;2023-08-12T11:06:10;96505.75;;;35.62;35.50
79127;BME280;68528;48.814;8.904;2023-08-12T11:08:53;96515.44;;;35.83;34.98
79127;BME280;68528;48.814;8.904;2023-08-12T11:11:23;96502.53;;;35.35;34.59
79127;BME280;68528;48.814;8.904;2023-08-12T11:13:58;96492.53;;;34.22;35.63
79127;BME280;68528;48.814;8.904;2023-08-12T11:16:36;96481.16;;;33.55;39.01
79127;BME280;68528;48.814;8.904;2023-08-12T11:19:03;96484.03;;;32.85;40.88
79127;BME280;68528;48.814;8.904;2023-08-12T11:21:29;96486.47;;;32.19;41.22
79127;BME280;68528;48.814;8.904;2023-08-12T11:23:54;96500.50;;;31.71;44.30
79127;BME280;68528;48.814;8.904;2023-08-12T11:26:23;96506.50;;;31.27;43.39
79127;BME280;68528;48.814;8.904;2023-08-12T11:28:49;96497.34;;;30.72;45.60
79127;BME280;68528;48.814;8.904;2023-08-12T11:31:15;96503.16;;;30.28;46.78
79127;BME280;68528;48.814;8.904;2023-08-12T11:33:40;96488.81;;;29.68;48.07
79127;BME280;68528;48.814;8.904;2023-08-12T11:36:07;96495.34;;;28.92;49.71
79127;BME280;68528;48.814;8.904;2023-08-12T11:38:32;96506.22;;;28.37;51.59
79127;BME280;68528;48.814;8.904;2023-08-12T11:41:00;96516.72;;;27.94;53.10
79127;BME280;68528;48.814;8.904;2023-08-12T11:43:42;96529.22;;;27.24;55.04
79127;BME280;68528;48.814;8.904;2023-08-12T11:46:08;96534.09;;;26.88;55.84
79127;BME280;68528;48.814;8.904;2023-08-12T11:48:34;96515.16;;;26.61;57.90
79127;BME280;68528;48.814;8.904;2023-08-12T11:50:59;96506.47;;;26.86;57.11
79127;BME280;68528;48.814;8.904;2023-08-12T11:53:25;96503.47;;;27.08;61.33
79127;BME280;68528;48.814;8.904;2023-08-12T11:55:51;96519.13;;;27.18;57.17
79127;BME280;68528;48.814;8.904;2023-08-12T11:58:16;96528.78;;;27.08;56.70
79127;BME280;68528;48.814;8.904;2023-08-12T12:00:44;96551.28;;;26.81;57.65
79127;BME280;68528;48.814;8.904;2023-08-12T12:03:11;96571.34;;;26.52;59.07
79127;BME280;68528;48.814;8.904;2023-08-12T12:05:37;96603.22;;;26.27;72.55
79127;BME280;68528;48.814;8.904;2023-08-12T12:08:04;96598.13;;;25.74;72.09
79127;BME280;68528;48.814;8.904;2023-08-12T12:10:32;96587.16;;;25.23;86.21
79127;BME280;68528;48.814;8.904;2023-08-12T12:12:59;96617.72;;;24.74;86.20
79127;BME280;68528;48.814;8.904;2023-08-12T12:15:26;96607.19;;;23.78;91.59
79127;BME280;68528;48.814;8.904;2023-08-12T12:17:52;96588.97;;;23.45;94.08
79127;BME280;68528;48.814;8.904;2023-08-12T12:20:17;96610.56;;;23.15;92.41
79127;BME280;68528;48.814;8.904;2023-08-12T12:22:47;96597.13;;;22.82;95.35
79127;BME280;68528;48.814;8.904;2023-08-12T12:25:15;96604.13;;;22.74;96.92
79127;BME280;68528;48.814;8.904;2023-08-12T12:27:42;96590.53;;;22.59;96.92
79127;BME280;68528;48.814;8.904;2023-08-12T12:30:09;96603.31;;;22.57;96.22
79127;BME280;68528;48.814;8.904;2023-08-12T12:32:35;96603.88;;;22.68;96.39
79127;BME280;68528;48.814;8.904;2023-08-12T12:35:00;96604.97;;;22.54;96.95
79127;BME280;68528;48.814;8.904;2023-08-12T12:37:26;96599.28;;;22.58;95.75
79127;BME280;68528;48.814;8.904;2023-08-12T12:39:52;96610.41;;;22.61;97.91
79127;BME280;68528;48.814;8.904;2023-08-12T12:42:17;96621.38;;;22.69;95.64
79127;BME280;68528;48.814;8.904;2023-08-12T12:44:43;96631.59;;;22.75;98.79
79127;BME280;68528;48.814;8.904;2023-08-12T12:47:09;96628.44;;;22.89;95.97
79127;BME280;68528;48.814;8.904;2023-08-12T12:49:41;96636.25;;;23.10;98.18
79127;BME280;68528;48.814;8.904;2023-08-12T12:52:09;96633.41;;;23.26;98.47
79127;BME280;68528;48.814;8.904;2023-08-12T12:54:34;96631.06;;;23.54;99.91
79127;BME280;68528;48.814;8.904;2023-08-12T12:57:00;96628.97;;;23.70;97.23
79127;BME280;68528;48.814;8.904;2023-08-12T12:59:27;96633.44;;;23.80;96.24
79127;BME280;68528;48.814;8.904;2023-08-12T13:01:52;96618.78;;;23.64;93.42
79127;BME280;68528;48.814;8.904;2023-08-12T13:04:18;96632.22;;;23.69;90.50
79127;BME280;68528;48.814;8.904;2023-08-12T13:06:44;96623.81;;;23.56;92.34
79127;BME280;68528;48.814;8.904;2023-08-12T13:09:09;96629.22;;;23.34;90.41
79127;BME280;68528;48.814;8.904;2023-08-12T13:11:35;96623.31;;;23.16;94.34
79127;BME280;68528;48.814;8.904;2023-08-12T13:14:01;96626.22;;;23.25;94.59
79127;BME280;68528;48.814;8.904;2023-08-12T13:16:26;96638.09;;;23.46;94.85
79127;BME280;68528;48.814;8.904;2023-08-12T13:18:52;96638.75;;;23.50;95.72
79127;BME280;68528;48.814;8.904;2023-08-12T13:21:18;96623.75;;;23.44;91.74
79127;BME280;68528;48.814;8.904;2023-08-12T13:23:43;96632.03;;;23.47;94.04
79127;BME280;68528;48.814;8.904;2023-08-12T13:26:08;96631.69;;;23.74;83.48
79127;BME280;68528;48.814;8.904;2023-08-12T13:28:34;96622.66;;;23.95;90.15
79127;BME280;68528;48.814;8.904;2023-08-12T13:30:59;96621.09;;;24.19;88.93
79127;BME280;68528;48.814;8.904;2023-08-12T13:33:25;96628.38;;;24.29;81.22
79127;BME280;68528;48.814;8.904;2023-08-12T13:35:51;96619.41;;;24.47;79.48
79127;BME280;68528;48.814;8.904;2023-08-12T13:38:16;96614.81;;;24.53;78.64
79127;BME280;68528;48.814;8.904;2023-08-12T13:40:42;96622.19;;;24.59;83.42
79127;BME280;68528;48.814;8.904;2023-08-12T13:43:07;96609.19;;;24.65;77.98
79127;BME280;68528;48.814;8.904;2023-08-12T13:45:32;96606.53;;;24.49;82.95
79127;BME280;68528;48.814;8.904;2023-08-12T13:47:58;96607.34;;;24.37;84.04
79127;BME280;68528;48.814;8.904;2023-08-12T13:50:23;96601.94;;;24.43;82.66